sensor_id;sensor_type;location;lat;lon;timestamp;P1;durP1;ratioP1;P2;durP2;ratioP2
18520;SDS011;9390;51.244;6.982;2022-10-16T00:01:06;12.35;;;3.80;;
18520;SDS011;9390;51.244;6.982;2022-10-16T00:03:38;11.80;;;4.22;;
18520;SDS011;9390;51.244;6.982;2022-10-16T00:06:10;11.90;;;4.00;;
18520;SDS011;9390;51.244;6.982;2022-10-16T00:08:42;12.27;;;4.18;;
18520;SDS011;9390;51.244;6.982;2022-10-16T00:11:15;10.88;;;3.88;;
18520;SDS011;9390;51.244;6.982;2022-10-16T00:13:48;16.27;;;4.75;;
18520;SDS011;9390;51.244;6.982;2022-10-16T00:16:21;10.23;;;4.38;;
18520;SDS011;9390;51.244;6.982;2022-10-16T00:18:52;9.90;;;4.90;;
18520;SDS011;9390;51.244;6.982;2022-10-16T00:21:24;11.20;;;5.00;;
18520;SDS011;9390;51.244;6.982;2022-10-16T00:23:58;11.07;;;4.82;;
18520;SDS011;9390;51.244;6.982;2022-10-16T00:26:32;12.50;;;4.90;;
18520;SDS011;9390;51.244;6.982;2022-10-16T00:29:04;11.20;;;6.03;;
18520;SDS011;9390;51.244;6.982;2022-10-16T00:31:36;12.67;;;5.40;;
18520;SDS011;9390;51.244;6.982;2022-10-16T00:34:08;11.35;;;6.20;;
18520;SDS011;9390;51.244;6.982;2022-10-16T00:36:39;16.00;;;5.90;;
18520;SDS011;9390;51.244;6.982;2022-10-16T00:39:11;14.32;;;5.97;;
18520;SDS011;9390;51.244;6.982;2022-10-16T00:41:43;15.82;;;6.32;;
18520;SDS011;9390;51.244;6.982;2022-10-16T00:47:14;13.25;;;6.20;;
18520;SDS011;9390;51.244;6.982;2022-10-16T00:49:49;12.13;;;5.80;;
18520;SDS011;9390;51.244;6.982;2022-10-16T00:54:53;11.98;;;5.57;;
18520;SDS011;9390;51.244;6.982;2022-10-16T00:57:26;13.82;;;5.75;;
18520;SDS011;9390;51.244;6.982;2022-10-16T00:59:58;13.27;;;6.20;;
18520;SDS011;9390;51.244;6.982;2022-10-16T01:02:30;12.25;;;5.60;;
18520;SDS011;9390;51.244;6.982;2022-10-16T01:05:01;12.23;;;5.28;;
18520;SDS011;9390;51.244;6.982;2022-10-16T01:07:36;11.50;;;5.77;;
18520;SDS011;9390;51.244;6.982;2022-10-16T01:10:14;16.48;;;6.60;;
18520;SDS011;9390;51.244;6.982;2022-10-16T01:12:53;10.98;;;5.53;;
18520;SDS011;9390;51.244;6.982;2022-10-16T01:15:29;18.63;;;5.45;;
18520;SDS011;9390;51.244;6.982;2022-10-16T01:18:03;13.68;;;5.50;;
18520;SDS011;9390;51.244;6.982;2022-10-16T01:20:40;13.52;;;5.60;;
18520;SDS011;9390;51.244;6.982;2022-10-16T01:23:20;11.75;;;5.80;;
18520;SDS011;9390;51.244;6.982;2022-10-16T01:28:34;12.65;;;5.63;;
18520;SDS011;9390;51.244;6.982;2022-10-16T01:31:07;13.77;;;5.60;;
18520;SDS011;9390;51.244;6.982;2022-10-16T01:33:41;10.98;;;5.28;;
18520;SDS011;9390;51.244;6.982;2022-10-16T01:36:14;15.88;;;5.28;;
18520;SDS011;9390;51.244;6.982;2022-10-16T01:38:47;10.15;;;5.32;;
18520;SDS011;9390;51.244;6.982;2022-10-16T01:41:21;15.00;;;4.68;;
18520;SDS011;9390;51.244;6.982;2022-10-16T01:43:57;8.30;;;4.60;;
18520;SDS011;9390;51.244;6.982;2022-10-16T01:46:30;8.52;;;4.70;;
18520;SDS011;9390;51.244;6.982;2022-10-16T01:49:03;10.95;;;4.60;;
18520;SDS011;9390;51.244;6.982;2022-10-16T01:51:35;11.88;;;4.50;;
18520;SDS011;9390;51.244;6.982;2022-10-16T01:54:07;10.52;;;4.68;;
18520;SDS011;9390;51.244;6.982;2022-10-16T01:56:39;17.55;;;5.20;;
18520;SDS011;9390;51.244;6.982;2022-10-16T01:59:12;11.68;;;5.15;;
18520;SDS011;9390;51.244;6.982;2022-10-16T02:01:47;13.00;;;5.53;;
18520;SDS011;9390;51.244;6.982;2022-10-16T02:04:22;10.10;;;5.47;;
18520;SDS011;9390;51.244;6.982;2022-10-16T02:06:56;13.93;;;5.57;;
18520;SDS011;9390;51.244;6.982;2022-10-16T02:09:28;10.27;;;5.93;;
18520;SDS011;9390;51.244;6.982;2022-10-16T02:12:01;17.77;;;6.22;;
18520;SDS011;9390;51.244;6.982;2022-10-16T02:14:38;12.00;;;6.10;;
18520;SDS011;9390;51.244;6.982;2022-10-16T02:17:11;12.23;;;5.68;;
18520;SDS011;9390;51.244;6.982;2022-10-16T02:19:43;14.63;;;6.32;;
18520;SDS011;9390;51.244;6.982;2022-10-16T02:22:17;13.18;;;5.88;;
18520;SDS011;9390;51.244;6.982;2022-10-16T02:24:50;12.20;;;6.10;;
18520;SDS011;9390;51.244;6.982;2022-10-16T02:27:25;12.52;;;5.88;;
18520;SDS011;9390;51.244;6.982;2022-10-16T02:30:02;13.85;;;6.10;;
18520;SDS011;9390;51.244;6.982;2022-10-16T02:32:38;12.00;;;5.70;;
18520;SDS011;9390;51.244;6.982;2022-10-16T02:35:11;9.65;;;5.55;;
18520;SDS011;9390;51.244;6.982;2022-10-16T02:37:43;13.10;;;5.53;;
18520;SDS011;9390;51.244;6.982;2022-10-16T02:40:15;11.52;;;5.00;;
18520;SDS011;9390;51.244;6.982;2022-10-16T02:42:49;10.97;;;5.40;;
18520;SDS011;9390;51.244;6.982;2022-10-16T02:45:23;10.32;;;4.53;;
18520;SDS011;9390;51.244;6.982;2022-10-16T02:50:26;13.38;;;5.30;;
18520;SDS011;9390;51.244;6.982;2022-10-16T02:52:57;10.10;;;4.95;;
18520;SDS011;9390;51.244;6.982;2022-10-16T02:55:29;9.85;;;5.00;;
18520;SDS011;9390;51.244;6.982;2022-10-16T02:58:00;9.48;;;5.10;;
18520;SDS011;9390;51.244;6.982;2022-10-16T03:00:33;10.73;;;4.85;;
18520;SDS011;9390;51.244;6.982;2022-10-16T03:03:04;8.00;;;4.32;;
18520;SDS011;9390;51.244;6.982;2022-10-16T03:05:35;10.20;;;4.68;;
18520;SDS011;9390;51.244;6.982;2022-10-16T03:08:07;8.90;;;4.25;;
18520;SDS011;9390;51.244;6.982;2022-10-16T03:10:38;8.43;;;3.97;;
18520;SDS011;9390;51.244;6.982;2022-10-16T03:13:10;11.80;;;3.40;;
18520;SDS011;9390;51.244;6.982;2022-10-16T03:15:43;7.35;;;3.55;;
18520;SDS011;9390;51.244;6.982;2022-10-16T03:20:45;7.00;;;3.63;;
18520;SDS011;9390;51.244;6.982;2022-10-16T03:23:17;8.15;;;3.45;;
18520;SDS011;9390;51.244;6.982;2022-10-16T03:25:48;7.65;;;3.78;;
18520;SDS011;9390;51.244;6.982;2022-10-16T03:28:19;14.90;;;4.18;;
18520;SDS011;9390;51.244;6.982;2022-10-16T03:30:52;9.57;;;4.07;;
18520;SDS011;9390;51.244;6.982;2022-10-16T03:33:23;15.00;;;4.50;;
18520;SDS011;9390;51.244;6.982;2022-10-16T03:35:55;8.70;;;4.00;;
18520;SDS011;9390;51.244;6.982;2022-10-16T03:38:26;10.23;;;3.97;;
18520;SDS011;9390;51.244;6.982;2022-10-16T03:40:57;9.63;;;4.38;;
18520;SDS011;9390;51.244;6.982;2022-10-16T03:43:29;9.90;;;3.80;;
18520;SDS011;9390;51.244;6.982;2022-10-16T03:46:01;11.85;;;4.13;;
18520;SDS011;9390;51.244;6.982;2022-10-16T03:48:33;10.88;;;4.20;;
18520;SDS011;9390;51.244;6.982;2022-10-16T03:51:04;9.98;;;4.40;;
18520;SDS011;9390;51.244;6.982;2022-10-16T03:53:36;8.05;;;4.05;;
18520;SDS011;9390;51.244;6.982;2022-10-16T03:56:07;8.50;;;3.70;;
18520;SDS011;9390;51.244;6.982;2022-10-16T03:58:38;11.45;;;4.10;;
18520;SDS011;9390;51.244;6.982;2022-10-16T04:01:11;7.57;;;4.00;;
18520;SDS011;9390;51.244;6.982;2022-10-16T04:03:42;6.90;;;3.50;;
18520;SDS011;9390;51.244;6.982;2022-10-16T04:06:14;9.48;;;3.78;;
18520;SDS011;9390;51.244;6.982;2022-10-16T04:08:45;8.32;;;3.42;;
18520;SDS011;9390;51.244;6.982;2022-10-16T04:11:17;7.25;;;3.67;;
18520;SDS011;9390;51.244;6.982;2022-10-16T04:13:48;8.63;;;3.25;;
18520;SDS011;9390;51.244;6.982;2022-10-16T04:16:21;10.68;;;3.30;;
18520;SDS011;9390;51.244;6.982;2022-10-16T04:18:52;9.23;;;3.83;;
18520;SDS011;9390;51.244;6.982;2022-10-16T04:21:23;9.70;;;3.60;;
18520;SDS011;9390;51.244;6.982;2022-10-16T08:51:54;9.38;;;2.13;;
18520;SDS011;9390;51.244;6.982;2022-10-16T08:54:28;5.53;;;2.00;;
18520;SDS011;9390;51.244;6.982;2022-10-16T08:57:07;8.70;;;2.10;;
18520;SDS011;9390;51.244;6.982;2022-10-16T08:59:40;6.25;;;2.10;;
18520;SDS011;9390;51.244;6.982;2022-10-16T09:02:18;5.88;;;2.17;;
18520;SDS011;9390;51.244;6.982;2022-10-16T09:04:57;5.72;;;1.80;;
18520;SDS011;9390;51.244;6.982;2022-10-16T09:07:36;6.28;;;1.70;;
18520;SDS011;9390;51.244;6.982;2022-10-16T09:10:16;6.90;;;1.85;;
18520;SDS011;9390;51.244;6.982;2022-10-16T09:12:58;4.78;;;1.52;;
18520;SDS011;9390;51.244;6.982;2022-10-16T09:15:34;5.13;;;1.52;;
18520;SDS011;9390;51.244;6.982;2022-10-16T09:18:09;6.45;;;1.60;;
18520;SDS011;9390;51.244;6.982;2022-10-16T09:20:45;3.85;;;1.33;;
18520;SDS011;9390;51.244;6.982;2022-10-16T09:23:25;5.82;;;1.50;;
18520;SDS011;9390;51.244;6.982;2022-10-16T09:25:58;8.90;;;1.80;;
18520;SDS011;9390;51.244;6.982;2022-10-16T09:28:29;7.60;;;1.75;;
18520;SDS011;9390;51.244;6.982;2022-10-16T09:31:01;7.72;;;1.60;;
18520;SDS011;9390;51.244;6.982;2022-10-16T09:33:33;3.70;;;1.42;;
18520;SDS011;9390;51.244;6.982;2022-10-16T09:36:06;4.00;;;1.35;;
18520;SDS011;9390;51.244;6.982;2022-10-16T09:38:40;5.45;;;1.58;;
18520;SDS011;9390;51.244;6.982;2022-10-16T09:41:14;4.70;;;1.30;;
18520;SDS011;9390;51.244;6.982;2022-10-16T09:43:49;3.67;;;1.30;;
18520;SDS011;9390;51.244;6.982;2022-10-16T09:46:27;4.85;;;1.40;;
18520;SDS011;9390;51.244;6.982;2022-10-16T09:49:00;4.40;;;1.30;;
18520;SDS011;9390;51.244;6.982;2022-10-16T09:51:33;5.43;;;1.50;;
18520;SDS011;9390;51.244;6.982;2022-10-16T09:56:45;6.38;;;1.50;;
18520;SDS011;9390;51.244;6.982;2022-10-16T09:59:22;6.65;;;1.48;;
18520;SDS011;9390;51.244;6.982;2022-10-16T10:01:56;2.03;;;0.93;;
18520;SDS011;9390;51.244;6.982;2022-10-16T10:04:37;3.13;;;1.20;;
18520;SDS011;9390;51.244;6.982;2022-10-16T10:07:16;3.47;;;1.48;;
18520;SDS011;9390;51.244;6.982;2022-10-16T10:09:51;10.93;;;1.42;;
18520;SDS011;9390;51.244;6.982;2022-10-16T10:12:23;7.43;;;1.58;;
18520;SDS011;9390;51.244;6.982;2022-10-16T10:14:55;5.70;;;1.30;;
18520;SDS011;9390;51.244;6.982;2022-10-16T10:17:27;5.05;;;1.30;;
18520;SDS011;9390;51.244;6.982;2022-10-16T10:20:00;5.18;;;1.15;;
18520;SDS011;9390;51.244;6.982;2022-10-16T10:22:46;6.28;;;1.25;;
18520;SDS011;9390;51.244;6.982;2022-10-16T10:28:23;8.02;;;1.10;;
18520;SDS011;9390;51.244;6.982;2022-10-16T10:31:13;5.07;;;0.90;;
18520;SDS011;9390;51.244;6.982;2022-10-16T10:33:47;4.80;;;1.00;;
18520;SDS011;9390;51.244;6.982;2022-10-16T10:36:32;2.83;;;0.90;;
18520;SDS011;9390;51.244;6.982;2022-10-16T10:39:07;4.63;;;1.00;;
18520;SDS011;9390;51.244;6.982;2022-10-16T10:41:56;3.72;;;0.93;;
18520;SDS011;9390;51.244;6.982;2022-10-16T10:44:37;3.58;;;0.95;;
18520;SDS011;9390;51.244;6.982;2022-10-16T10:47:21;4.97;;;1.20;;
18520;SDS011;9390;51.244;6.982;2022-10-16T10:50:02;5.63;;;1.98;;
18520;SDS011;9390;51.244;6.982;2022-10-16T10:52:48;6.65;;;1.10;;
18520;SDS011;9390;51.244;6.982;2022-10-16T10:55:26;2.97;;;1.00;;
18520;SDS011;9390;51.244;6.982;2022-10-16T10:58:19;5.07;;;0.98;;
18520;SDS011;9390;51.244;6.982;2022-10-16T11:01:12;8.68;;;1.23;;
18520;SDS011;9390;51.244;6.982;2022-10-16T11:03:49;4.78;;;1.02;;
18520;SDS011;9390;51.244;6.982;2022-10-16T11:06:30;5.57;;;1.20;;
18520;SDS011;9390;51.244;6.982;2022-10-16T11:09:07;6.70;;;3.28;;
18520;SDS011;9390;51.244;6.982;2022-10-16T11:11:43;4.22;;;0.98;;
18520;SDS011;9390;51.244;6.982;2022-10-16T11:14:18;7.28;;;1.02;;
18520;SDS011;9390;51.244;6.982;2022-10-16T11:16:52;3.75;;;1.00;;
18520;SDS011;9390;51.244;6.982;2022-10-16T11:19:28;4.65;;;0.90;;
18520;SDS011;9390;51.244;6.982;2022-10-16T11:22:09;1.67;;;0.82;;
18520;SDS011;9390;51.244;6.982;2022-10-16T11:24:45;7.50;;;1.05;;
18520;SDS011;9390;51.244;6.982;2022-10-16T11:27:19;2.42;;;0.90;;
18520;SDS011;9390;51.244;6.982;2022-10-16T11:29:55;5.13;;;1.20;;
18520;SDS011;9390;51.244;6.982;2022-10-16T11:32:30;4.60;;;0.93;;
18520;SDS011;9390;51.244;6.982;2022-10-16T11:35:08;3.28;;;1.00;;
18520;SDS011;9390;51.244;6.982;2022-10-16T11:37:44;5.40;;;1.02;;
18520;SDS011;9390;51.244;6.982;2022-10-16T11:40:19;3.67;;;0.88;;
18520;SDS011;9390;51.244;6.982;2022-10-16T11:42:54;6.75;;;0.98;;
18520;SDS011;9390;51.244;6.982;2022-10-16T11:45:32;5.90;;;1.35;;
18520;SDS011;9390;51.244;6.982;2022-10-16T11:48:08;4.53;;;0.93;;
18520;SDS011;9390;51.244;6.982;2022-10-16T11:50:48;6.72;;;1.35;;
18520;SDS011;9390;51.244;6.982;2022-10-16T11:53:24;3.03;;;1.00;;
18520;SDS011;9390;51.244;6.982;2022-10-16T11:56:06;5.28;;;1.30;;
18520;SDS011;9390;51.244;6.982;2022-10-16T11:58:38;3.33;;;1.00;;
18520;SDS011;9390;51.244;6.982;2022-10-16T12:01:17;6.38;;;1.25;;
18520;SDS011;9390;51.244;6.982;2022-10-16T12:03:55;2.60;;;0.90;;
18520;SDS011;9390;51.244;6.982;2022-10-16T12:06:31;3.78;;;0.95;;
18520;SDS011;9390;51.244;6.982;2022-10-16T12:09:05;4.60;;;0.93;;
18520;SDS011;9390;51.244;6.982;2022-10-16T12:11:41;3.25;;;0.88;;
18520;SDS011;9390;51.244;6.982;2022-10-16T12:14:20;3.72;;;0.90;;
18520;SDS011;9390;51.244;6.982;2022-10-16T12:16:56;4.35;;;0.98;;
18520;SDS011;9390;51.244;6.982;2022-10-16T12:19:28;3.25;;;1.00;;
18520;SDS011;9390;51.244;6.982;2022-10-16T12:22:01;4.20;;;1.15;;
18520;SDS011;9390;51.244;6.982;2022-10-16T12:24:35;4.03;;;0.85;;
18520;SDS011;9390;51.244;6.982;2022-10-16T12:29:53;4.00;;;0.90;;
18520;SDS011;9390;51.244;6.982;2022-10-16T12:32:29;4.95;;;1.17;;
18520;SDS011;9390;51.244;6.982;2022-10-16T12:35:02;4.32;;;1.52;;
18520;SDS011;9390;51.244;6.982;2022-10-16T12:37:35;4.38;;;1.08;;
18520;SDS011;9390;51.244;6.982;2022-10-16T12:40:11;7.13;;;1.58;;
18520;SDS011;9390;51.244;6.982;2022-10-16T12:42:44;4.38;;;0.93;;
18520;SDS011;9390;51.244;6.982;2022-10-16T12:45:26;4.55;;;0.95;;
18520;SDS011;9390;51.244;6.982;2022-10-16T12:48:02;5.78;;;1.20;;
18520;SDS011;9390;51.244;6.982;2022-10-16T12:50:48;4.03;;;0.90;;
18520;SDS011;9390;51.244;6.982;2022-10-16T12:53:20;6.28;;;1.10;;
18520;SDS011;9390;51.244;6.982;2022-10-16T12:56:00;4.93;;;0.95;;
18520;SDS011;9390;51.244;6.982;2022-10-16T12:58:38;3.90;;;0.80;;
18520;SDS011;9390;51.244;6.982;2022-10-16T13:01:27;5.10;;;1.10;;
18520;SDS011;9390;51.244;6.982;2022-10-16T13:04:17;3.08;;;0.90;;
18520;SDS011;9390;51.244;6.982;2022-10-16T13:07:22;2.35;;;0.90;;
18520;SDS011;9390;51.244;6.982;2022-10-16T13:10:02;2.57;;;0.90;;
18520;SDS011;9390;51.244;6.982;2022-10-16T13:12:45;4.95;;;1.02;;
18520;SDS011;9390;51.244;6.982;2022-10-16T13:15:27;5.40;;;1.42;;
18520;SDS011;9390;51.244;6.982;2022-10-16T13:18:08;5.78;;;1.67;;
18520;SDS011;9390;51.244;6.982;2022-10-16T13:20:54;6.50;;;1.20;;
18520;SDS011;9390;51.244;6.982;2022-10-16T13:23:31;4.45;;;1.35;;
18520;SDS011;9390;51.244;6.982;2022-10-16T13:26:08;4.97;;;1.08;;
18520;SDS011;9390;51.244;6.982;2022-10-16T13:28:46;5.70;;;1.65;;
18520;SDS011;9390;51.244;6.982;2022-10-16T13:31:18;9.82;;;1.30;;
18520;SDS011;9390;51.244;6.982;2022-10-16T13:33:51;3.75;;;1.20;;
18520;SDS011;9390;51.244;6.982;2022-10-16T13:36:26;3.17;;;1.33;;
18520;SDS011;9390;51.244;6.982;2022-10-16T13:39:00;1.75;;;0.98;;
18520;SDS011;9390;51.244;6.982;2022-10-16T13:41:38;5.07;;;1.30;;
18520;SDS011;9390;51.244;6.982;2022-10-16T13:44:12;7.13;;;1.33;;
18520;SDS011;9390;51.244;6.982;2022-10-16T13:46:45;2.95;;;1.10;;
18520;SDS011;9390;51.244;6.982;2022-10-16T13:49:28;3.80;;;1.27;;
18520;SDS011;9390;51.244;6.982;2022-10-16T13:52:01;5.57;;;1.05;;
18520;SDS011;9390;51.244;6.982;2022-10-16T13:54:33;4.10;;;1.17;;
18520;SDS011;9390;51.244;6.982;2022-10-16T13:57:04;2.90;;;1.30;;
18520;SDS011;9390;51.244;6.982;2022-10-16T13:59:36;6.25;;;1.50;;
18520;SDS011;9390;51.244;6.982;2022-10-16T14:02:13;4.03;;;1.35;;
18520;SDS011;9390;51.244;6.982;2022-10-16T14:04:49;4.90;;;1.50;;
18520;SDS011;9390;51.244;6.982;2022-10-16T14:07:23;1.83;;;0.85;;
18520;SDS011;9390;51.244;6.982;2022-10-16T14:10:01;6.80;;;1.25;;
18520;SDS011;9390;51.244;6.982;2022-10-16T14:12:34;4.13;;;1.10;;
18520;SDS011;9390;51.244;6.982;2022-10-16T14:15:15;6.20;;;1.25;;
18520;SDS011;9390;51.244;6.982;2022-10-16T14:17:48;5.97;;;1.95;;
18520;SDS011;9390;51.244;6.982;2022-10-16T14:20:23;5.90;;;1.83;;
18520;SDS011;9390;51.244;6.982;2022-10-16T14:23:01;9.05;;;2.00;;
18520;SDS011;9390;51.244;6.982;2022-10-16T14:25:33;7.22;;;1.70;;
18520;SDS011;9390;51.244;6.982;2022-10-16T14:28:14;4.85;;;1.20;;
18520;SDS011;9390;51.244;6.982;2022-10-16T14:30:50;6.32;;;1.15;;
18520;SDS011;9390;51.244;6.982;2022-10-16T14:33:24;6.88;;;1.17;;
18520;SDS011;9390;51.244;6.982;2022-10-16T14:36:00;3.88;;;0.80;;
18520;SDS011;9390;51.244;6.982;2022-10-16T14:38:36;2.88;;;0.95;;
18520;SDS011;9390;51.244;6.982;2022-10-16T14:41:08;3.33;;;0.93;;
18520;SDS011;9390;51.244;6.982;2022-10-16T14:43:40;8.60;;;1.08;;
18520;SDS011;9390;51.244;6.982;2022-10-16T14:46:13;4.57;;;1.20;;
18520;SDS011;9390;51.244;6.982;2022-10-16T14:48:47;3.80;;;0.95;;
18520;SDS011;9390;51.244;6.982;2022-10-16T14:51:21;3.72;;;0.80;;
18520;SDS011;9390;51.244;6.982;2022-10-16T14:53:54;4.25;;;1.02;;
18520;SDS011;9390;51.244;6.982;2022-10-16T14:56:27;4.03;;;1.02;;
18520;SDS011;9390;51.244;6.982;2022-10-16T14:59:00;3.92;;;1.48;;
18520;SDS011;9390;51.244;6.982;2022-10-16T15:01:32;7.60;;;2.70;;
18520;SDS011;9390;51.244;6.982;2022-10-16T15:04:03;5.60;;;2.25;;
18520;SDS011;9390;51.244;6.982;2022-10-16T15:06:35;4.55;;;1.20;;
18520;SDS011;9390;51.244;6.982;2022-10-16T15:09:07;3.75;;;1.05;;
18520;SDS011;9390;51.244;6.982;2022-10-16T15:11:39;2.05;;;1.08;;
18520;SDS011;9390;51.244;6.982;2022-10-16T15:14:11;5.15;;;0.98;;
18520;SDS011;9390;51.244;6.982;2022-10-16T15:16:43;5.10;;;0.93;;
18520;SDS011;9390;51.244;6.982;2022-10-16T15:19:15;3.55;;;1.00;;
18520;SDS011;9390;51.244;6.982;2022-10-16T15:21:47;2.10;;;0.70;;
18520;SDS011;9390;51.244;6.982;2022-10-16T15:24:20;3.83;;;1.20;;
18520;SDS011;9390;51.244;6.982;2022-10-16T15:26:52;5.95;;;1.10;;
18520;SDS011;9390;51.244;6.982;2022-10-16T15:29:23;5.40;;;1.45;;
18520;SDS011;9390;51.244;6.982;2022-10-16T15:31:55;2.40;;;0.82;;
18520;SDS011;9390;51.244;6.982;2022-10-16T15:34:26;3.92;;;1.00;;
18520;SDS011;9390;51.244;6.982;2022-10-16T15:36:57;6.45;;;1.13;;
18520;SDS011;9390;51.244;6.982;2022-10-16T15:39:31;3.25;;;1.02;;
18520;SDS011;9390;51.244;6.982;2022-10-16T15:42:02;6.13;;;1.15;;
18520;SDS011;9390;51.244;6.982;2022-10-16T15:44:35;3.20;;;0.93;;
18520;SDS011;9390;51.244;6.982;2022-10-16T15:47:07;4.22;;;1.02;;
18520;SDS011;9390;51.244;6.982;2022-10-16T15:49:38;3.72;;;1.33;;
18520;SDS011;9390;51.244;6.982;2022-10-16T15:52:09;4.78;;;1.13;;
18520;SDS011;9390;51.244;6.982;2022-10-16T15:54:42;10.50;;;2.00;;
18520;SDS011;9390;51.244;6.982;2022-10-16T15:57:14;7.38;;;2.00;;
18520;SDS011;9390;51.244;6.982;2022-10-16T15:59:45;4.45;;;1.83;;
18520;SDS011;9390;51.244;6.982;2022-10-16T16:02:17;4.43;;;1.77;;
18520;SDS011;9390;51.244;6.982;2022-10-16T16:04:48;9.13;;;1.88;;
18520;SDS011;9390;51.244;6.982;2022-10-16T16:07:19;9.70;;;1.88;;
18520;SDS011;9390;51.244;6.982;2022-10-16T16:09:52;8.40;;;1.80;;
18520;SDS011;9390;51.244;6.982;2022-10-16T16:12:23;6.00;;;1.77;;
18520;SDS011;9390;51.244;6.982;2022-10-16T16:14:55;4.55;;;1.75;;
18520;SDS011;9390;51.244;6.982;2022-10-16T16:17:26;4.40;;;1.73;;
18520;SDS011;9390;51.244;6.982;2022-10-16T16:19:58;3.70;;;1.58;;
18520;SDS011;9390;51.244;6.982;2022-10-16T16:22:29;6.22;;;2.25;;
18520;SDS011;9390;51.244;6.982;2022-10-16T16:25:02;8.80;;;1.77;;
18520;SDS011;9390;51.244;6.982;2022-10-16T16:27:34;3.25;;;1.45;;
18520;SDS011;9390;51.244;6.982;2022-10-16T16:30:09;4.88;;;1.63;;
18520;SDS011;9390;51.244;6.982;2022-10-16T16:32:41;7.60;;;1.50;;
18520;SDS011;9390;51.244;6.982;2022-10-16T16:35:13;6.03;;;1.35;;
18520;SDS011;9390;51.244;6.982;2022-10-16T16:37:46;5.03;;;1.40;;
18520;SDS011;9390;51.244;6.982;2022-10-16T16:40:19;4.70;;;1.55;;
18520;SDS011;9390;51.244;6.982;2022-10-16T16:42:50;3.50;;;1.02;;
18520;SDS011;9390;51.244;6.982;2022-10-16T16:45:22;3.80;;;1.40;;
18520;SDS011;9390;51.244;6.982;2022-10-16T16:47:55;2.50;;;1.20;;
18520;SDS011;9390;51.244;6.982;2022-10-16T16:50:26;6.22;;;1.75;;
18520;SDS011;9390;51.244;6.982;2022-10-16T16:52:58;7.70;;;1.80;;
18520;SDS011;9390;51.244;6.982;2022-10-16T16:55:30;7.10;;;1.88;;
18520;SDS011;9390;51.244;6.982;2022-10-16T16:58:03;4.60;;;1.55;;
18520;SDS011;9390;51.244;6.982;2022-10-16T17:00:35;6.43;;;1.88;;
18520;SDS011;9390;51.244;6.982;2022-10-16T17:03:06;7.25;;;2.00;;
18520;SDS011;9390;51.244;6.982;2022-10-16T17:05:37;4.35;;;1.90;;
18520;SDS011;9390;51.244;6.982;2022-10-16T17:08:09;7.57;;;1.90;;
18520;SDS011;9390;51.244;6.982;2022-10-16T17:10:44;5.40;;;2.08;;
18520;SDS011;9390;51.244;6.982;2022-10-16T17:13:18;4.55;;;1.85;;
18520;SDS011;9390;51.244;6.982;2022-10-16T17:15:50;6.45;;;1.88;;
18520;SDS011;9390;51.244;6.982;2022-10-16T17:18:23;4.63;;;1.60;;
18520;SDS011;9390;51.244;6.982;2022-10-16T17:20:54;5.68;;;1.92;;
18520;SDS011;9390;51.244;6.982;2022-10-16T17:23:29;4.15;;;1.80;;
18520;SDS011;9390;51.244;6.982;2022-10-16T17:26:05;5.63;;;2.08;;
18520;SDS011;9390;51.244;6.982;2022-10-16T17:28:37;6.55;;;1.70;;
18520;SDS011;9390;51.244;6.982;2022-10-16T17:31:09;5.90;;;2.00;;
18520;SDS011;9390;51.244;6.982;2022-10-16T17:33:44;4.97;;;2.28;;
18520;SDS011;9390;51.244;6.982;2022-10-16T17:36:16;3.97;;;1.85;;
18520;SDS011;9390;51.244;6.982;2022-10-16T17:38:48;6.53;;;2.03;;
18520;SDS011;9390;51.244;6.982;2022-10-16T17:41:21;5.05;;;1.98;;
18520;SDS011;9390;51.244;6.982;2022-10-16T17:43:53;5.22;;;1.77;;
18520;SDS011;9390;51.244;6.982;2022-10-16T17:46:25;5.07;;;1.80;;
18520;SDS011;9390;51.244;6.982;2022-10-16T17:48:57;4.95;;;1.77;;
18520;SDS011;9390;51.244;6.982;2022-10-16T17:51:29;5.40;;;1.80;;
18520;SDS011;9390;51.244;6.982;2022-10-16T17:54:02;4.13;;;1.63;;
18520;SDS011;9390;51.244;6.982;2022-10-16T17:56:35;5.05;;;1.75;;
18520;SDS011;9390;51.244;6.982;2022-10-16T17:59:06;3.67;;;1.63;;
18520;SDS011;9390;51.244;6.982;2022-10-16T18:01:38;5.20;;;1.90;;
18520;SDS011;9390;51.244;6.982;2022-10-16T18:04:11;5.35;;;1.70;;
18520;SDS011;9390;51.244;6.982;2022-10-16T18:09:15;5.80;;;2.08;;
18520;SDS011;9390;51.244;6.982;2022-10-16T18:14:29;4.68;;;1.90;;
18520;SDS011;9390;51.244;6.982;2022-10-16T18:17:01;9.73;;;2.30;;
18520;SDS011;9390;51.244;6.982;2022-10-16T18:19:33;5.00;;;1.70;;
18520;SDS011;9390;51.244;6.982;2022-10-16T18:22:04;2.83;;;1.30;;
18520;SDS011;9390;51.244;6.982;2022-10-16T18:24:35;4.30;;;1.70;;
18520;SDS011;9390;51.244;6.982;2022-10-16T18:27:08;7.03;;;2.30;;
18520;SDS011;9390;51.244;6.982;2022-10-16T18:29:39;6.47;;;2.13;;
18520;SDS011;9390;51.244;6.982;2022-10-16T18:32:11;5.00;;;2.10;;
18520;SDS011;9390;51.244;6.982;2022-10-16T18:34:42;4.03;;;1.80;;
18520;SDS011;9390;51.244;6.982;2022-10-16T18:37:14;4.50;;;1.40;;
18520;SDS011;9390;51.244;6.982;2022-10-16T18:39:46;5.15;;;1.58;;
18520;SDS011;9390;51.244;6.982;2022-10-16T18:42:19;5.97;;;1.42;;
18520;SDS011;9390;51.244;6.982;2022-10-16T18:44:51;4.50;;;1.52;;
18520;SDS011;9390;51.244;6.982;2022-10-16T18:47:22;2.35;;;1.42;;
18520;SDS011;9390;51.244;6.982;2022-10-16T18:49:53;7.05;;;1.63;;
18520;SDS011;9390;51.244;6.982;2022-10-16T18:52:25;6.07;;;1.40;;
18520;SDS011;9390;51.244;6.982;2022-10-16T18:54:56;4.70;;;1.75;;
18520;SDS011;9390;51.244;6.982;2022-10-16T18:57:29;4.60;;;1.67;;
18520;SDS011;9390;51.244;6.982;2022-10-16T19:00:00;3.15;;;1.67;;
18520;SDS011;9390;51.244;6.982;2022-10-16T19:02:32;4.72;;;1.48;;
18520;SDS011;9390;51.244;6.982;2022-10-16T19:05:03;3.95;;;1.63;;
18520;SDS011;9390;51.244;6.982;2022-10-16T19:07:35;2.63;;;1.50;;
18520;SDS011;9390;51.244;6.982;2022-10-16T19:10:07;5.55;;;1.65;;
18520;SDS011;9390;51.244;6.982;2022-10-16T19:12:39;7.93;;;1.80;;
18520;SDS011;9390;51.244;6.982;2022-10-16T19:15:11;5.30;;;1.98;;
18520;SDS011;9390;51.244;6.982;2022-10-16T19:17:42;5.88;;;1.85;;
18520;SDS011;9390;51.244;6.982;2022-10-16T19:20:14;3.17;;;1.80;;
18520;SDS011;9390;51.244;6.982;2022-10-16T19:22:45;5.78;;;1.88;;
18520;SDS011;9390;51.244;6.982;2022-10-16T19:25:25;4.80;;;2.00;;
18520;SDS011;9390;51.244;6.982;2022-10-16T19:27:58;4.30;;;1.97;;
18520;SDS011;9390;51.244;6.982;2022-10-16T19:30:35;2.75;;;1.77;;
18520;SDS011;9390;51.244;6.982;2022-10-16T19:33:07;3.60;;;1.70;;
18520;SDS011;9390;51.244;6.982;2022-10-16T19:35:39;4.70;;;2.17;;
18520;SDS011;9390;51.244;6.982;2022-10-16T19:38:10;3.38;;;1.73;;
18520;SDS011;9390;51.244;6.982;2022-10-16T19:40:41;10.07;;;2.47;;
18520;SDS011;9390;51.244;6.982;2022-10-16T19:43:14;10.77;;;3.05;;
18520;SDS011;9390;51.244;6.982;2022-10-16T19:45:46;12.02;;;2.50;;
18520;SDS011;9390;51.244;6.982;2022-10-16T19:48:17;8.88;;;2.47;;
18520;SDS011;9390;51.244;6.982;2022-10-16T19:50:48;7.25;;;2.40;;
18520;SDS011;9390;51.244;6.982;2022-10-16T19:53:20;5.30;;;2.17;;
18520;SDS011;9390;51.244;6.982;2022-10-16T19:55:52;5.85;;;2.47;;
18520;SDS011;9390;51.244;6.982;2022-10-16T19:58:24;4.90;;;2.70;;
18520;SDS011;9390;51.244;6.982;2022-10-16T20:00:56;8.00;;;2.90;;
18520;SDS011;9390;51.244;6.982;2022-10-16T20:03:28;6.75;;;3.00;;
18520;SDS011;9390;51.244;6.982;2022-10-16T20:05:59;10.77;;;3.28;;
18520;SDS011;9390;51.244;6.982;2022-10-16T20:08:35;9.13;;;3.05;;
18520;SDS011;9390;51.244;6.982;2022-10-16T20:11:08;6.93;;;3.10;;
18520;SDS011;9390;51.244;6.982;2022-10-16T20:16:13;9.15;;;3.63;;
18520;SDS011;9390;51.244;6.982;2022-10-16T20:18:47;9.45;;;3.95;;
18520;SDS011;9390;51.244;6.982;2022-10-16T20:23:52;8.82;;;4.72;;
18520;SDS011;9390;51.244;6.982;2022-10-16T20:26:23;7.10;;;3.60;;
18520;SDS011;9390;51.244;6.982;2022-10-16T20:28:57;9.27;;;4.07;;
18520;SDS011;9390;51.244;6.982;2022-10-16T20:31:29;9.68;;;4.07;;
18520;SDS011;9390;51.244;6.982;2022-10-16T20:36:34;14.43;;;4.70;;
18520;SDS011;9390;51.244;6.982;2022-10-16T20:39:07;7.60;;;4.18;;
18520;SDS011;9390;51.244;6.982;2022-10-16T20:41:38;12.02;;;4.20;;